sensor_id;sensor_type;location;lat;lon;timestamp;temperature;humidity
10812;DHT22;5458;51.496;7.334;2022-12-20T00:00:12;11.00;99.90
10812;DHT22;5458;51.496;7.334;2022-12-20T00:02:38;11.00;99.90
10812;DHT22;5458;51.496;7.334;2022-12-20T00:05:04;11.00;99.90
10812;DHT22;5458;51.496;7.334;2022-12-20T00:07:30;11.00;99.90
10812;DHT22;5458;51.496;7.334;2022-12-20T00:09:55;11.00;99.90
10812;DHT22;5458;51.496;7.334;2022-12-20T00:12:21;11.00;99.90
10812;DHT22;5458;51.496;7.334;2022-12-20T00:14:46;11.10;99.90
10812;DHT22;5458;51.496;7.334;2022-12-20T00:17:12;11.00;99.90
10812;DHT22;5458;51.496;7.334;2022-12-20T00:19:37;11.00;99.90
10812;DHT22;5458;51.496;7.334;2022-12-20T00:22:03;11.10;99.90
10812;DHT22;5458;51.496;7.334;2022-12-20T00:24:28;11.10;99.90
10812;DHT22;5458;51.496;7.334;2022-12-20T00:26:54;11.10;99.90
10812;DHT22;5458;51.496;7.334;2022-12-20T00:29:20;11.20;99.90
10812;DHT22;5458;51.496;7.334;2022-12-20T00:31:45;11.20;99.90
10812;DHT22;5458;51.496;7.334;2022-12-20T00:34:11;11.20;99.90
10812;DHT22;5458;51.496;7.334;2022-12-20T00:36:38;11.20;99.90
10812;DHT22;5458;51.496;7.334;2022-12-20T00:39:04;11.20;99.90
10812;DHT22;5458;51.496;7.334;2022-12-20T00:41:32;11.20;99.90
10812;DHT22;5458;51.496;7.334;2022-12-20T00:43:58;11.30;99.90
10812;DHT22;5458;51.496;7.334;2022-12-20T00:46:24;11.30;99.90
10812;DHT22;5458;51.496;7.334;2022-12-20T00:48:51;11.30;99.90
10812;DHT22;5458;51.496;7.334;2022-12-20T00:51:22;11.30;99.90
10812;DHT22;5458;51.496;7.334;2022-12-20T00:53:48;11.30;99.90
10812;DHT22;5458;51.496;7.334;2022-12-20T00:56:14;11.20;99.90
10812;DHT22;5458;51.496;7.334;2022-12-20T00:58:41;11.20;99.90
10812;DHT22;5458;51.496;7.334;2022-12-20T01:01:18;11.20;99.90
10812;DHT22;5458;51.496;7.334;2022-12-20T01:03:44;11.20;99.90
10812;DHT22;5458;51.496;7.334;2022-12-20T01:06:10;11.20;99.90
10812;DHT22;5458;51.496;7.334;2022-12-20T01:08:36;11.20;99.90
10812;DHT22;5458;51.496;7.334;2022-12-20T01:11:13;11.30;99.90
10812;DHT22;5458;51.496;7.334;2022-12-20T01:13:43;11.30;99.90
10812;DHT22;5458;51.496;7.334;2022-12-20T01:16:18;11.30;99.90
10812;DHT22;5458;51.496;7.334;2022-12-20T01:18:46;11.30;99.90
10812;DHT22;5458;51.496;7.334;2022-12-20T01:21:13;11.30;99.90
10812;DHT22;5458;51.496;7.334;2022-12-20T01:23:39;11.30;99.90
10812;DHT22;5458;51.496;7.334;2022-12-20T01:26:07;11.30;99.90
10812;DHT22;5458;51.496;7.334;2022-12-20T01:28:34;11.30;99.90
10812;DHT22;5458;51.496;7.334;2022-12-20T01:31:01;11.30;99.90
10812;DHT22;5458;51.496;7.334;2022-12-20T01:33:26;11.40;99.90
10812;DHT22;5458;51.496;7.334;2022-12-20T01:36:01;11.40;99.90
10812;DHT22;5458;51.496;7.334;2022-12-20T01:38:27;11.40;99.90
10812;DHT22;5458;51.496;7.334;2022-12-20T01:40:54;11.40;99.90
10812;DHT22;5458;51.496;7.334;2022-12-20T01:43:20;11.30;99.90
10812;DHT22;5458;51.496;7.334;2022-12-20T01:45:46;11.40;99.90
10812;DHT22;5458;51.496;7.334;2022-12-20T01:48:15;11.40;99.90
10812;DHT22;5458;51.496;7.334;2022-12-20T01:50:44;11.40;99.90
10812;DHT22;5458;51.496;7.334;2022-12-20T01:53:10;11.30;99.90
10812;DHT22;5458;51.496;7.334;2022-12-20T01:55:36;11.40;99.90
10812;DHT22;5458;51.496;7.334;2022-12-20T01:58:04;11.40;99.90
10812;DHT22;5458;51.496;7.334;2022-12-20T02:00:30;11.40;99.90
10812;DHT22;5458;51.496;7.334;2022-12-20T02:02:59;11.40;99.90
10812;DHT22;5458;51.496;7.334;2022-12-20T02:05:25;11.40;99.90
10812;DHT22;5458;51.496;7.334;2022-12-20T02:07:53;11.40;99.90
10812;DHT22;5458;51.496;7.334;2022-12-20T02:10:22;11.40;99.90
10812;DHT22;5458;51.496;7.334;2022-12-20T02:12:50;11.50;99.90
10812;DHT22;5458;51.496;7.334;2022-12-20T02:15:47;11.40;99.90
10812;DHT22;5458;51.496;7.334;2022-12-20T02:18:26;11.40;99.90
10812;DHT22;5458;51.496;7.334;2022-12-20T02:29:39;11.30;99.90
10812;DHT22;5458;51.496;7.334;2022-12-20T02:34:39;11.20;99.90
10812;DHT22;5458;51.496;7.334;2022-12-20T02:37:05;11.20;99.90
10812;DHT22;5458;51.496;7.334;2022-12-20T02:39:32;11.20;99.90
10812;DHT22;5458;51.496;7.334;2022-12-20T02:42:09;11.20;99.90
10812;DHT22;5458;51.496;7.334;2022-12-20T02:44:38;11.20;99.90
10812;DHT22;5458;51.496;7.334;2022-12-20T02:47:39;11.20;99.90
10812;DHT22;5458;51.496;7.334;2022-12-20T02:50:07;11.20;99.90
10812;DHT22;5458;51.496;7.334;2022-12-20T02:52:35;11.20;99.90
10812;DHT22;5458;51.496;7.334;2022-12-20T02:55:01;11.20;99.90
10812;DHT22;5458;51.496;7.334;2022-12-20T02:57:48;11.20;99.90
10812;DHT22;5458;51.496;7.334;2022-12-20T03:00:20;11.20;99.90
10812;DHT22;5458;51.496;7.334;2022-12-20T03:02:49;11.20;99.90
10812;DHT22;5458;51.496;7.334;2022-12-20T03:05:38;11.20;99.90
10812;DHT22;5458;51.496;7.334;2022-12-20T03:08:07;11.20;99.90
10812;DHT22;5458;51.496;7.334;2022-12-20T03:10:33;11.20;99.90
10812;DHT22;5458;51.496;7.334;2022-12-20T03:12:58;11.20;99.90
10812;DHT22;5458;51.496;7.334;2022-12-20T03:15:24;11.20;99.90
10812;DHT22;5458;51.496;7.334;2022-12-20T03:17:49;11.20;99.90
10812;DHT22;5458;51.496;7.334;2022-12-20T03:20:15;11.20;99.90
10812;DHT22;5458;51.496;7.334;2022-12-20T03:22:41;11.20;99.90
10812;DHT22;5458;51.496;7.334;2022-12-20T03:25:07;11.20;99.90
10812;DHT22;5458;51.496;7.334;2022-12-20T03:27:32;11.10;99.90
10812;DHT22;5458;51.496;7.334;2022-12-20T03:29:58;11.10;99.90
10812;DHT22;5458;51.496;7.334;2022-12-20T03:32:24;11.10;99.90
10812;DHT22;5458;51.496;7.334;2022-12-20T03:34:49;11.10;99.90
10812;DHT22;5458;51.496;7.334;2022-12-20T03:37:15;11.10;99.90
10812;DHT22;5458;51.496;7.334;2022-12-20T03:39:40;11.10;99.90
10812;DHT22;5458;51.496;7.334;2022-12-20T03:42:06;11.10;99.90
10812;DHT22;5458;51.496;7.334;2022-12-20T03:44:31;11.00;99.90
10812;DHT22;5458;51.496;7.334;2022-12-20T03:46:57;11.00;99.90
10812;DHT22;5458;51.496;7.334;2022-12-20T03:49:22;11.00;99.90
10812;DHT22;5458;51.496;7.334;2022-12-20T03:51:48;11.00;99.90
10812;DHT22;5458;51.496;7.334;2022-12-20T03:54:14;11.00;99.90
10812;DHT22;5458;51.496;7.334;2022-12-20T03:56:39;10.90;99.90
10812;DHT22;5458;51.496;7.334;2022-12-20T03:59:05;10.90;99.90
10812;DHT22;5458;51.496;7.334;2022-12-20T04:01:30;10.90;99.90
10812;DHT22;5458;51.496;7.334;2022-12-20T04:04:01;10.90;99.90
10812;DHT22;5458;51.496;7.334;2022-12-20T04:06:26;10.90;99.90
10812;DHT22;5458;51.496;7.334;2022-12-20T04:08:52;10.90;99.90
10812;DHT22;5458;51.496;7.334;2022-12-20T04:11:18;10.90;99.90
10812;DHT22;5458;51.496;7.334;2022-12-20T04:13:44;10.80;99.90
10812;DHT22;5458;51.496;7.334;2022-12-20T04:16:10;10.80;99.90
10812;DHT22;5458;51.496;7.334;2022-12-20T04:18:36;10.80;99.90
10812;DHT22;5458;51.496;7.334;2022-12-20T04:21:03;10.80;99.90
10812;DHT22;5458;51.496;7.334;2022-12-20T04:23:29;10.80;99.90
10812;DHT22;5458;51.496;7.334;2022-12-20T04:25:55;10.80;99.90
10812;DHT22;5458;51.496;7.334;2022-12-20T04:28:20;10.80;99.90
10812;DHT22;5458;51.496;7.334;2022-12-20T04:30:46;10.80;99.90
10812;DHT22;5458;51.496;7.334;2022-12-20T04:33:11;10.80;99.90
10812;DHT22;5458;51.496;7.334;2022-12-20T04:35:37;10.70;99.90
10812;DHT22;5458;51.496;7.334;2022-12-20T04:38:03;10.80;99.90
10812;DHT22;5458;51.496;7.334;2022-12-20T04:40:28;10.70;99.90
10812;DHT22;5458;51.496;7.334;2022-12-20T04:42:54;10.70;99.90
10812;DHT22;5458;51.496;7.334;2022-12-20T04:45:20;10.70;99.90
10812;DHT22;5458;51.496;7.334;2022-12-20T04:47:45;10.70;99.90
10812;DHT22;5458;51.496;7.334;2022-12-20T04:50:11;10.70;99.90
10812;DHT22;5458;51.496;7.334;2022-12-20T04:52:36;10.70;99.90
10812;DHT22;5458;51.496;7.334;2022-12-20T04:55:21;10.60;99.90
10812;DHT22;5458;51.496;7.334;2022-12-20T04:57:46;10.70;99.90
10812;DHT22;5458;51.496;7.334;2022-12-20T05:00:13;10.70;99.90
10812;DHT22;5458;51.496;7.334;2022-12-20T05:02:40;10.70;99.90
10812;DHT22;5458;51.496;7.334;2022-12-20T05:05:06;10.70;99.90
10812;DHT22;5458;51.496;7.334;2022-12-20T05:07:32;10.60;99.90
10812;DHT22;5458;51.496;7.334;2022-12-20T05:09:57;10.60;99.90
10812;DHT22;5458;51.496;7.334;2022-12-20T05:12:23;10.70;99.90
10812;DHT22;5458;51.496;7.334;2022-12-20T05:14:48;10.70;99.90
10812;DHT22;5458;51.496;7.334;2022-12-20T05:17:14;10.60;99.90
10812;DHT22;5458;51.496;7.334;2022-12-20T05:19:39;10.60;99.90
10812;DHT22;5458;51.496;7.334;2022-12-20T05:22:05;10.60;99.90
10812;DHT22;5458;51.496;7.334;2022-12-20T05:24:49;10.60;99.90
10812;DHT22;5458;51.496;7.334;2022-12-20T05:27:33;10.60;99.90
10812;DHT22;5458;51.496;7.334;2022-12-20T05:29:59;10.60;99.90
10812;DHT22;5458;51.496;7.334;2022-12-20T05:32:24;10.60;99.90
10812;DHT22;5458;51.496;7.334;2022-12-20T05:34:50;10.60;99.90
10812;DHT22;5458;51.496;7.334;2022-12-20T05:37:15;10.60;99.90
10812;DHT22;5458;51.496;7.334;2022-12-20T05:39:41;10.60;99.90
10812;DHT22;5458;51.496;7.334;2022-12-20T05:42:07;10.60;99.90
10812;DHT22;5458;51.496;7.334;2022-12-20T05:44:32;10.60;99.90
10812;DHT22;5458;51.496;7.334;2022-12-20T05:46:58;10.60;99.90
10812;DHT22;5458;51.496;7.334;2022-12-20T05:49:24;10.60;99.90
10812;DHT22;5458;51.496;7.334;2022-12-20T05:51:49;10.60;99.90
10812;DHT22;5458;51.496;7.334;2022-12-20T05:54:15;10.60;99.90
10812;DHT22;5458;51.496;7.334;2022-12-20T05:56:40;10.60;99.90
10812;DHT22;5458;51.496;7.334;2022-12-20T05:59:06;10.60;99.90
10812;DHT22;5458;51.496;7.334;2022-12-20T06:01:31;10.60;99.90
10812;DHT22;5458;51.496;7.334;2022-12-20T06:03:57;10.60;99.90
10812;DHT22;5458;51.496;7.334;2022-12-20T06:06:23;10.60;99.90
10812;DHT22;5458;51.496;7.334;2022-12-20T06:08:49;10.60;99.90
10812;DHT22;5458;51.496;7.334;2022-12-20T06:11:14;10.60;99.90
10812;DHT22;5458;51.496;7.334;2022-12-20T06:13:40;10.70;99.90
10812;DHT22;5458;51.496;7.334;2022-12-20T06:16:06;10.60;99.90
10812;DHT22;5458;51.496;7.334;2022-12-20T06:18:31;10.60;99.90
10812;DHT22;5458;51.496;7.334;2022-12-20T06:20:57;10.60;99.90
10812;DHT22;5458;51.496;7.334;2022-12-20T06:23:23;10.60;99.90
10812;DHT22;5458;51.496;7.334;2022-12-20T06:25:48;10.70;99.90
10812;DHT22;5458;51.496;7.334;2022-12-20T06:28:14;10.70;99.90
10812;DHT22;5458;51.496;7.334;2022-12-20T06:30:51;10.70;99.90
10812;DHT22;5458;51.496;7.334;2022-12-20T06:33:17;10.70;99.90
10812;DHT22;5458;51.496;7.334;2022-12-20T06:35:42;10.70;99.90
10812;DHT22;5458;51.496;7.334;2022-12-20T06:38:08;10.80;99.90
10812;DHT22;5458;51.496;7.334;2022-12-20T06:40:33;10.80;99.90
10812;DHT22;5458;51.496;7.334;2022-12-20T06:42:59;10.80;99.90
10812;DHT22;5458;51.496;7.334;2022-12-20T06:45:24;10.80;99.90
10812;DHT22;5458;51.496;7.334;2022-12-20T06:47:50;10.80;99.90
10812;DHT22;5458;51.496;7.334;2022-12-20T06:50:16;10.80;99.90
10812;DHT22;5458;51.496;7.334;2022-12-20T06:52:41;10.80;99.90
10812;DHT22;5458;51.496;7.334;2022-12-20T06:55:07;10.80;99.90
10812;DHT22;5458;51.496;7.334;2022-12-20T06:57:33;10.80;99.90
10812;DHT22;5458;51.496;7.334;2022-12-20T06:59:58;10.90;99.90
10812;DHT22;5458;51.496;7.334;2022-12-20T07:02:24;10.90;99.90
10812;DHT22;5458;51.496;7.334;2022-12-20T07:04:49;10.90;99.90
10812;DHT22;5458;51.496;7.334;2022-12-20T07:07:15;10.90;99.90
10812;DHT22;5458;51.496;7.334;2022-12-20T07:09:41;10.90;99.90
10812;DHT22;5458;51.496;7.334;2022-12-20T07:12:08;10.90;99.90
10812;DHT22;5458;51.496;7.334;2022-12-20T07:14:34;10.90;99.90
10812;DHT22;5458;51.496;7.334;2022-12-20T07:16:59;10.90;99.90
10812;DHT22;5458;51.496;7.334;2022-12-20T07:19:25;10.90;99.90
10812;DHT22;5458;51.496;7.334;2022-12-20T07:21:50;10.90;99.90
10812;DHT22;5458;51.496;7.334;2022-12-20T07:24:16;10.90;99.90
10812;DHT22;5458;51.496;7.334;2022-12-20T07:26:43;10.90;99.90
10812;DHT22;5458;51.496;7.334;2022-12-20T07:29:10;11.00;99.90
10812;DHT22;5458;51.496;7.334;2022-12-20T07:31:36;11.00;99.90
10812;DHT22;5458;51.496;7.334;2022-12-20T07:34:01;11.00;99.90
10812;DHT22;5458;51.496;7.334;2022-12-20T07:36:27;11.00;99.90
10812;DHT22;5458;51.496;7.334;2022-12-20T07:38:53;11.00;99.90
10812;DHT22;5458;51.496;7.334;2022-12-20T07:41:18;11.00;99.90
10812;DHT22;5458;51.496;7.334;2022-12-20T07:43:44;11.00;99.90
10812;DHT22;5458;51.496;7.334;2022-12-20T07:46:12;11.00;99.90
10812;DHT22;5458;51.496;7.334;2022-12-20T07:48:38;11.10;99.90
10812;DHT22;5458;51.496;7.334;2022-12-20T07:51:12;11.10;99.90
10812;DHT22;5458;51.496;7.334;2022-12-20T07:53:44;11.10;99.90
10812;DHT22;5458;51.496;7.334;2022-12-20T07:56:12;11.10;99.90
10812;DHT22;5458;51.496;7.334;2022-12-20T07:58:39;11.10;99.90
10812;DHT22;5458;51.496;7.334;2022-12-20T08:01:06;11.10;99.90
10812;DHT22;5458;51.496;7.334;2022-12-20T08:03:41;11.10;99.90
10812;DHT22;5458;51.496;7.334;2022-12-20T08:06:08;11.20;99.90
10812;DHT22;5458;51.496;7.334;2022-12-20T08:08:37;11.20;99.90
10812;DHT22;5458;51.496;7.334;2022-12-20T08:11:06;11.20;99.90
10812;DHT22;5458;51.496;7.334;2022-12-20T08:13:33;11.30;99.90
10812;DHT22;5458;51.496;7.334;2022-12-20T08:15:59;11.40;99.90
10812;DHT22;5458;51.496;7.334;2022-12-20T08:18:25;11.40;99.90
10812;DHT22;5458;51.496;7.334;2022-12-20T08:20:51;11.40;99.90
10812;DHT22;5458;51.496;7.334;2022-12-20T08:23:17;11.40;99.90
10812;DHT22;5458;51.496;7.334;2022-12-20T08:25:43;11.40;99.90
10812;DHT22;5458;51.496;7.334;2022-12-20T08:28:09;11.40;99.90
10812;DHT22;5458;51.496;7.334;2022-12-20T08:30:35;11.40;99.90
10812;DHT22;5458;51.496;7.334;2022-12-20T08:33:01;11.30;99.90
10812;DHT22;5458;51.496;7.334;2022-12-20T08:35:26;11.30;99.90
10812;DHT22;5458;51.496;7.334;2022-12-20T08:37:53;11.30;99.90
10812;DHT22;5458;51.496;7.334;2022-12-20T08:40:19;11.30;99.90
10812;DHT22;5458;51.496;7.334;2022-12-20T08:42:45;11.30;99.90
10812;DHT22;5458;51.496;7.334;2022-12-20T08:45:10;11.30;99.90
10812;DHT22;5458;51.496;7.334;2022-12-20T08:47:36;11.40;99.90
10812;DHT22;5458;51.496;7.334;2022-12-20T08:50:02;11.40;99.90
10812;DHT22;5458;51.496;7.334;2022-12-20T08:52:28;11.40;99.90
10812;DHT22;5458;51.496;7.334;2022-12-20T08:54:54;11.50;99.90
10812;DHT22;5458;51.496;7.334;2022-12-20T08:57:19;11.50;99.90
10812;DHT22;5458;51.496;7.334;2022-12-20T08:59:45;11.50;99.90
10812;DHT22;5458;51.496;7.334;2022-12-20T09:02:11;11.50;99.90
10812;DHT22;5458;51.496;7.334;2022-12-20T09:04:36;11.50;99.90
10812;DHT22;5458;51.496;7.334;2022-12-20T09:07:02;11.50;99.90
10812;DHT22;5458;51.496;7.334;2022-12-20T09:09:28;11.50;99.90
10812;DHT22;5458;51.496;7.334;2022-12-20T09:11:54;11.60;99.90
10812;DHT22;5458;51.496;7.334;2022-12-20T09:14:20;11.60;99.90
10812;DHT22;5458;51.496;7.334;2022-12-20T09:16:46;11.60;99.90
10812;DHT22;5458;51.496;7.334;2022-12-20T09:19:12;11.60;99.90
10812;DHT22;5458;51.496;7.334;2022-12-20T09:21:38;11.60;99.90
10812;DHT22;5458;51.496;7.334;2022-12-20T09:24:04;11.70;99.90
10812;DHT22;5458;51.496;7.334;2022-12-20T09:26:30;11.70;99.90
10812;DHT22;5458;51.496;7.334;2022-12-20T09:28:57;11.70;99.90
10812;DHT22;5458;51.496;7.334;2022-12-20T09:31:24;11.70;99.90
10812;DHT22;5458;51.496;7.334;2022-12-20T09:33:53;11.70;99.90
10812;DHT22;5458;51.496;7.334;2022-12-20T09:36:20;11.70;99.90
10812;DHT22;5458;51.496;7.334;2022-12-20T09:38:47;11.80;99.90
10812;DHT22;5458;51.496;7.334;2022-12-20T09:43:57;11.80;99.90
10812;DHT22;5458;51.496;7.334;2022-12-20T09:46:23;11.80;99.90
10812;DHT22;5458;51.496;7.334;2022-12-20T09:48:49;11.80;99.90
10812;DHT22;5458;51.496;7.334;2022-12-20T09:57:02;11.80;99.90
10812;DHT22;5458;51.496;7.334;2022-12-20T09:59:33;11.80;99.90
10812;DHT22;5458;51.496;7.334;2022-12-20T10:01:59;11.80;99.90
10812;DHT22;5458;51.496;7.334;2022-12-20T10:04:29;11.80;99.90
10812;DHT22;5458;51.496;7.334;2022-12-20T10:15:37;11.90;99.90
10812;DHT22;5458;51.496;7.334;2022-12-20T10:23:39;12.10;99.90
10812;DHT22;5458;51.496;7.334;2022-12-20T10:26:11;12.10;99.90
10812;DHT22;5458;51.496;7.334;2022-12-20T10:28:38;12.10;99.90
10812;DHT22;5458;51.496;7.334;2022-12-20T10:31:14;12.10;99.90
10812;DHT22;5458;51.496;7.334;2022-12-20T10:33:41;12.20;99.90
10812;DHT22;5458;51.496;7.334;2022-12-20T10:36:28;12.20;99.90
10812;DHT22;5458;51.496;7.334;2022-12-20T10:38:56;12.20;99.90
10812;DHT22;5458;51.496;7.334;2022-12-20T10:41:31;12.20;99.90
10812;DHT22;5458;51.496;7.334;2022-12-20T10:44:03;12.20;99.90
10812;DHT22;5458;51.496;7.334;2022-12-20T10:46:41;12.20;99.90
10812;DHT22;5458;51.496;7.334;2022-12-20T10:49:30;12.20;99.90
10812;DHT22;5458;51.496;7.334;2022-12-20T10:52:10;12.30;99.90
10812;DHT22;5458;51.496;7.334;2022-12-20T10:54:41;12.20;99.90
10812;DHT22;5458;51.496;7.334;2022-12-20T10:59:57;12.30;99.90
10812;DHT22;5458;51.496;7.334;2022-12-20T11:05:21;12.30;99.90
10812;DHT22;5458;51.496;7.334;2022-12-20T11:10:21;12.50;99.90
10812;DHT22;5458;51.496;7.334;2022-12-20T11:12:55;12.50;99.90
10812;DHT22;5458;51.496;7.334;2022-12-20T11:15:24;12.60;99.90
10812;DHT22;5458;51.496;7.334;2022-12-20T11:18:05;12.70;99.90
10812;DHT22;5458;51.496;7.334;2022-12-20T11:20:46;12.80;99.90
10812;DHT22;5458;51.496;7.334;2022-12-20T11:34:00;12.80;99.90
10812;DHT22;5458;51.496;7.334;2022-12-20T11:42:37;12.80;99.90
10812;DHT22;5458;51.496;7.334;2022-12-20T11:50:30;12.80;99.90
10812;DHT22;5458;51.496;7.334;2022-12-20T11:53:04;12.80;99.90
10812;DHT22;5458;51.496;7.334;2022-12-20T11:55:38;12.80;99.90
10812;DHT22;5458;51.496;7.334;2022-12-20T11:58:16;12.80;99.90
10812;DHT22;5458;51.496;7.334;2022-12-20T12:00:53;12.70;99.90
10812;DHT22;5458;51.496;7.334;2022-12-20T12:03:34;12.70;99.90
10812;DHT22;5458;51.496;7.334;2022-12-20T12:06:21;12.70;99.90
10812;DHT22;5458;51.496;7.334;2022-12-20T12:08:59;12.70;99.90
10812;DHT22;5458;51.496;7.334;2022-12-20T12:11:32;12.60;99.90
10812;DHT22;5458;51.496;7.334;2022-12-20T12:14:01;12.70;99.90
10812;DHT22;5458;51.496;7.334;2022-12-20T12:16:40;12.70;99.90
10812;DHT22;5458;51.496;7.334;2022-12-20T12:19:11;12.60;99.90
10812;DHT22;5458;51.496;7.334;2022-12-20T12:21:51;12.70;99.90
10812;DHT22;5458;51.496;7.334;2022-12-20T12:24:26;12.70;99.90
10812;DHT22;5458;51.496;7.334;2022-12-20T12:26:54;12.60;99.90
10812;DHT22;5458;51.496;7.334;2022-12-20T12:29:22;12.60;99.90
10812;DHT22;5458;51.496;7.334;2022-12-20T12:31:54;12.60;99.90
10812;DHT22;5458;51.496;7.334;2022-12-20T12:48:58;12.50;99.90
10812;DHT22;5458;51.496;7.334;2022-12-20T12:51:57;12.60;99.90
10812;DHT22;5458;51.496;7.334;2022-12-20T12:54:29;12.60;99.90
10812;DHT22;5458;51.496;7.334;2022-12-20T12:57:00;12.60;99.90
10812;DHT22;5458;51.496;7.334;2022-12-20T13:04:57;12.60;99.90
10812;DHT22;5458;51.496;7.334;2022-12-20T13:09:55;12.80;99.90
10812;DHT22;5458;51.496;7.334;2022-12-20T13:17:56;12.80;99.90
10812;DHT22;5458;51.496;7.334;2022-12-20T13:20:27;12.80;99.90
10812;DHT22;5458;51.496;7.334;2022-12-20T13:25:43;12.80;99.90
10812;DHT22;5458;51.496;7.334;2022-12-20T13:30:46;12.70;99.90
10812;DHT22;5458;51.496;7.334;2022-12-20T13:36:30;12.60;99.90
10812;DHT22;5458;51.496;7.334;2022-12-20T13:38:59;12.60;99.90
10812;DHT22;5458;51.496;7.334;2022-12-20T13:47:01;12.40;99.90
10812;DHT22;5458;51.496;7.334;2022-12-20T13:49:42;12.40;99.90
10812;DHT22;5458;51.496;7.334;2022-12-20T13:54:45;12.30;99.90
10812;DHT22;5458;51.496;7.334;2022-12-20T13:57:15;12.30;99.90
10812;DHT22;5458;51.496;7.334;2022-12-20T13:59:47;12.20;99.90
10812;DHT22;5458;51.496;7.334;2022-12-20T14:02:33;12.20;99.90
10812;DHT22;5458;51.496;7.334;2022-12-20T14:05:06;12.20;99.90
10812;DHT22;5458;51.496;7.334;2022-12-20T14:07:36;12.20;99.90
10812;DHT22;5458;51.496;7.334;2022-12-20T14:10:03;12.20;99.90
10812;DHT22;5458;51.496;7.334;2022-12-20T14:12:43;12.10;99.90
10812;DHT22;5458;51.496;7.334;2022-12-20T14:15:31;12.10;99.90
10812;DHT22;5458;51.496;7.334;2022-12-20T14:18:05;12.10;99.90
10812;DHT22;5458;51.496;7.334;2022-12-20T14:20:34;12.10;99.90
10812;DHT22;5458;51.496;7.334;2022-12-20T14:23:04;12.10;99.90
10812;DHT22;5458;51.496;7.334;2022-12-20T14:27:59;12.10;99.90
10812;DHT22;5458;51.496;7.334;2022-12-20T14:30:30;12.10;99.90
10812;DHT22;5458;51.496;7.334;2022-12-20T14:32:57;12.10;99.90
10812;DHT22;5458;51.496;7.334;2022-12-20T14:35:23;12.00;99.90
10812;DHT22;5458;51.496;7.334;2022-12-20T14:37:54;12.00;99.90
10812;DHT22;5458;51.496;7.334;2022-12-20T14:40:21;12.00;99.90
10812;DHT22;5458;51.496;7.334;2022-12-20T14:42:47;11.90;99.90
10812;DHT22;5458;51.496;7.334;2022-12-20T14:52:56;11.90;99.90
10812;DHT22;5458;51.496;7.334;2022-12-20T14:55:35;11.90;99.90
10812;DHT22;5458;51.496;7.334;2022-12-20T14:58:05;11.90;99.90
10812;DHT22;5458;51.496;7.334;2022-12-20T15:03:22;11.90;99.90
10812;DHT22;5458;51.496;7.334;2022-12-20T15:05:53;11.90;99.90
10812;DHT22;5458;51.496;7.334;2022-12-20T15:13:42;12.00;99.90
10812;DHT22;5458;51.496;7.334;2022-12-20T15:16:44;12.00;99.90
10812;DHT22;5458;51.496;7.334;2022-12-20T15:19:10;12.00;99.90
10812;DHT22;5458;51.496;7.334;2022-12-20T15:21:40;11.90;99.90
10812;DHT22;5458;51.496;7.334;2022-12-20T15:24:15;11.90;99.90
10812;DHT22;5458;51.496;7.334;2022-12-20T15:26:43;11.80;99.90
10812;DHT22;5458;51.496;7.334;2022-12-20T15:29:15;11.80;99.90
10812;DHT22;5458;51.496;7.334;2022-12-20T15:31:41;11.80;99.90
10812;DHT22;5458;51.496;7.334;2022-12-20T15:36:42;11.80;99.90
10812;DHT22;5458;51.496;7.334;2022-12-20T15:39:10;11.80;99.90
10812;DHT22;5458;51.496;7.334;2022-12-20T15:41:39;11.70;99.90
10812;DHT22;5458;51.496;7.334;2022-12-20T15:44:12;11.70;99.90
10812;DHT22;5458;51.496;7.334;2022-12-20T15:46:38;11.70;99.90
10812;DHT22;5458;51.496;7.334;2022-12-20T15:49:04;11.70;99.90
10812;DHT22;5458;51.496;7.334;2022-12-20T15:51:32;11.70;99.90
10812;DHT22;5458;51.496;7.334;2022-12-20T15:53:59;11.70;99.90
10812;DHT22;5458;51.496;7.334;2022-12-20T15:56:26;11.70;99.90
10812;DHT22;5458;51.496;7.334;2022-12-20T15:58:53;11.70;99.90
10812;DHT22;5458;51.496;7.334;2022-12-20T16:01:26;11.70;99.90
10812;DHT22;5458;51.496;7.334;2022-12-20T16:03:53;11.70;99.90
10812;DHT22;5458;51.496;7.334;2022-12-20T16:06:19;11.70;99.90
10812;DHT22;5458;51.496;7.334;2022-12-20T16:08:44;11.70;99.90
10812;DHT22;5458;51.496;7.334;2022-12-20T16:11:20;11.70;99.90
10812;DHT22;5458;51.496;7.334;2022-12-20T16:13:46;11.60;99.90
10812;DHT22;5458;51.496;7.334;2022-12-20T16:16:20;11.60;99.90
10812;DHT22;5458;51.496;7.334;2022-12-20T16:18:46;11.60;99.90
10812;DHT22;5458;51.496;7.334;2022-12-20T16:21:20;11.60;99.90
10812;DHT22;5458;51.496;7.334;2022-12-20T16:23:47;11.60;99.90
10812;DHT22;5458;51.496;7.334;2022-12-20T16:26:19;11.60;99.90
10812;DHT22;5458;51.496;7.334;2022-12-20T16:28:46;11.60;99.90
10812;DHT22;5458;51.496;7.334;2022-12-20T16:31:31;11.60;99.90
10812;DHT22;5458;51.496;7.334;2022-12-20T16:34:01;11.60;99.90
10812;DHT22;5458;51.496;7.334;2022-12-20T16:36:31;11.50;99.90
10812;DHT22;5458;51.496;7.334;2022-12-20T16:38:56;11.50;99.90
10812;DHT22;5458;51.496;7.334;2022-12-20T16:41:27;11.50;99.90
10812;DHT22;5458;51.496;7.334;2022-12-20T16:43:55;11.50;99.90
10812;DHT22;5458;51.496;7.334;2022-12-20T16:46:24;11.50;99.90
10812;DHT22;5458;51.496;7.334;2022-12-20T16:48:52;11.50;99.90
10812;DHT22;5458;51.496;7.334;2022-12-20T16:53:47;11.50;99.90
10812;DHT22;5458;51.496;7.334;2022-12-20T16:56:14;11.50;99.90
10812;DHT22;5458;51.496;7.334;2022-12-20T16:58:39;11.50;99.90
10812;DHT22;5458;51.496;7.334;2022-12-20T17:01:05;11.50;99.90
10812;DHT22;5458;51.496;7.334;2022-12-20T17:03:31;11.50;99.90
10812;DHT22;5458;51.496;7.334;2022-12-20T17:05:57;11.50;99.90
10812;DHT22;5458;51.496;7.334;2022-12-20T17:08:23;11.40;99.90
10812;DHT22;5458;51.496;7.334;2022-12-20T17:10:48;11.40;99.90
10812;DHT22;5458;51.496;7.334;2022-12-20T17:13:16;11.40;99.90
10812;DHT22;5458;51.496;7.334;2022-12-20T17:15:41;11.50;99.90
10812;DHT22;5458;51.496;7.334;2022-12-20T17:18:09;11.50;99.90
10812;DHT22;5458;51.496;7.334;2022-12-20T17:20:34;11.50;99.90
10812;DHT22;5458;51.496;7.334;2022-12-20T17:23:00;11.60;99.90
10812;DHT22;5458;51.496;7.334;2022-12-20T17:25:29;11.50;99.90
10812;DHT22;5458;51.496;7.334;2022-12-20T17:27:55;11.50;99.90
10812;DHT22;5458;51.496;7.334;2022-12-20T17:30:22;11.50;99.90
10812;DHT22;5458;51.496;7.334;2022-12-20T17:32:48;11.50;99.90
10812;DHT22;5458;51.496;7.334;2022-12-20T17:35:28;11.50;99.90
10812;DHT22;5458;51.496;7.334;2022-12-20T17:37:55;11.50;99.90
10812;DHT22;5458;51.496;7.334;2022-12-20T17:40:26;11.50;99.90
10812;DHT22;5458;51.496;7.334;2022-12-20T17:42:51;11.50;99.90
10812;DHT22;5458;51.496;7.334;2022-12-20T17:45:26;11.60;99.90
10812;DHT22;5458;51.496;7.334;2022-12-20T17:47:53;11.60;99.90
10812;DHT22;5458;51.496;7.334;2022-12-20T17:50:19;11.60;99.90
10812;DHT22;5458;51.496;7.334;2022-12-20T17:52:46;11.50;99.90
10812;DHT22;5458;51.496;7.334;2022-12-20T17:55:26;11.50;99.90
10812;DHT22;5458;51.496;7.334;2022-12-20T17:57:52;11.40;99.90
10812;DHT22;5458;51.496;7.334;2022-12-20T18:00:24;11.40;99.90
10812;DHT22;5458;51.496;7.334;2022-12-20T18:02:50;11.40;99.90
10812;DHT22;5458;51.496;7.334;2022-12-20T18:05:16;11.40;99.90